Time;durP1;ratioP1;P1;durP2;ratioP2;P2;SDS_P1;SDS_P2;PMS_P1;PMS_P2;Temp;Humidity;BMP_temperature;BMP_pressure;BME280_temperature;BME280_humidity;BME280_pressure;Samples;Min_cycle;Max_cycle;Signal;HPM_P1;HPM_P2
2022/09/20 00:08:56;;;;;;;7.40;6.70;;;;;;;8.16;90.38;99098.25;445435;1272;141430;-63
2022/09/20 00:19:04;;;;;;;6.30;5.60;;;;;;;8.09;90.41;99115.73;447022;1270;142047;-64
2022/09/20 00:29:11;;;;;;;6.60;5.00;;;;;;;7.90;90.24;99122.77;445962;1275;144088;-63
2022/09/20 00:39:17;;;;;;;6.10;5.30;;;;;;;7.66;90.64;99126.13;446998;1273;142151;-63
2022/09/20 00:49:28;;;;;;;6.60;5.00;;;;;;;7.54;90.91;99125.42;447081;1273;144180;-63
2022/09/20 00:59:37;;;;;;;6.40;4.80;;;;;;;7.38;91.16;99125.66;446332;1273;144649;-63
2022/09/20 01:09:42;;;;;;;5.10;4.60;;;;;;;7.16;91.13;99125.67;447125;1273;141897;-63
2022/09/20 01:20:04;;;;;;;6.80;6.00;;;;;;;6.97;91.56;99127.67;447134;1271;142361;-63
2022/09/20 01:30:14;;;;;;;6.50;5.50;;;;;;;6.81;91.99;99134.27;446713;1274;142325;-65
2022/09/20 01:40:29;;;;;;;7.60;5.00;;;;;;;6.67;92.18;99134.69;447059;1271;141704;-64
2022/09/20 01:50:46;;;;;;;6.50;5.60;;;;;;;6.63;92.78;99139.80;446255;1273;143847;-63
2022/09/20 02:01:10;;;;;;;7.20;5.80;;;;;;;6.88;93.91;99137.71;446887;1273;142410;-64
2022/09/20 02:11:19;;;;;;;10.50;4.70;;;;;;;7.26;94.31;99130.02;444610;1273;144234;-63
2022/09/20 02:21:35;;;;;;;5.20;4.80;;;;;;;7.50;94.29;99132.48;447031;1271;143262;-64
2022/09/20 02:32:06;;;;;;;7.60;5.40;;;;;;;7.69;93.99;99133.98;447091;1272;141416;-63
2022/09/20 02:42:17;;;;;;;6.00;5.10;;;;;;;7.81;93.82;99137.62;446670;1274;141657;-63
2022/09/20 02:52:32;;;;;;;5.00;4.50;;;;;;;7.80;93.35;99137.14;446750;1274;141865;-64
2022/09/20 03:02:50;;;;;;;5.50;4.80;;;;;;;7.66;93.14;99150.02;446010;1273;142154;-64
2022/09/20 03:13:10;;;;;;;5.40;4.40;;;;;;;7.43;92.75;99153.23;446650;1275;142166;-64
2022/09/20 03:23:31;;;;;;;5.20;4.50;;;;;;;7.19;92.97;99156.19;446046;1274;144291;-64
2022/09/20 03:33:47;;;;;;;5.30;4.30;;;;;;;6.94;92.92;99166.83;446803;1274;142676;-64
2022/09/20 03:44:07;;;;;;;5.40;4.90;;;;;;;6.90;93.49;99170.68;446825;1274;142300;-63
2022/09/20 03:54:34;;;;;;;6.60;5.90;;;;;;;7.00;93.69;99177.64;445123;1271;142519;-63
2022/09/20 04:04:46;;;;;;;7.00;6.30;;;;;;;7.14;94.05;99181.90;446784;1273;145032;-64
2022/09/20 04:15:04;;;;;;;8.40;7.60;;;;;;;7.35;94.29;99184.20;445934;1273;141830;-63
2022/09/20 04:25:17;;;;;;;9.60;8.70;;;;;;;7.50;94.27;99190.85;446634;1275;143103;-64
2022/09/20 04:46:31;;;;;;;9.60;8.70;;;;;;;7.76;94.25;99207.48;446593;1275;141819;-64
2022/09/20 04:56:52;;;;;;;11.90;8.40;;;;;;;7.83;94.25;99210.52;441180;1274;141812;-64
2022/09/20 05:07:31;;;;;;;9.30;8.40;;;;;;;7.94;94.00;99214.06;446775;1273;141691;-64
2022/09/20 05:18:08;;;;;;;9.60;8.50;;;;;;;8.12;93.54;99226.40;446028;1274;142653;-64
2022/09/20 05:28:23;;;;;;;9.10;8.10;;;;;;;8.31;93.20;99238.41;446656;1273;142464;-64
2022/09/20 05:38:39;;;;;;;7.60;6.90;;;;;;;8.51;92.43;99254.29;445818;1274;142095;-64
2022/09/20 05:48:56;;;;;;;9.40;8.50;;;;;;;8.66;91.91;99259.52;446428;1275;144593;-71
2022/09/20 05:59:22;;;;;;;7.60;6.90;;;;;;;8.64;91.17;99274.14;445918;1274;141669;-63
2022/09/20 06:09:45;;;;;;;8.40;7.60;;;;;;;8.83;90.89;99288.36;443318;1274;142200;-64
2022/09/20 06:20:00;;;;;;;7.80;7.10;;;;;;;8.99;90.42;99293.47;446825;1274;141958;-63
2022/09/20 06:30:14;;;;;;;7.40;6.60;;;;;;;9.12;89.81;99291.30;446884;1274;142505;-63
2022/09/20 06:50:56;;;;;;;7.00;6.30;;;;;;;9.50;88.97;99304.63;446177;1274;142513;-64
2022/09/20 07:01:02;;;;;;;8.00;7.00;;;;;;;9.67;88.27;99314.71;446661;1275;143511;-63
2022/09/20 07:11:15;;;;;;;7.50;5.30;;;;;;;9.77;87.87;99326.64;429515;1274;143713;-65
2022/09/20 07:21:21;;;;;;;7.70;5.80;;;;;;;9.98;87.53;99334.05;446881;1274;141905;-64
2022/09/20 07:31:30;;;;;;;5.60;4.90;;;;;;;9.99;86.71;99342.73;446874;1274;141618;-64
2022/09/20 07:41:36;;;;;;;6.70;5.90;;;;;;;10.47;86.78;99343.72;439738;1275;141492;-64
2022/09/20 07:51:42;;;;;;;6.60;5.90;;;;;;;10.86;85.46;99347.10;438656;1275;142090;-64
2022/09/20 08:01:48;;;;;;;9.10;7.20;;;;;;;11.05;85.19;99357.38;429591;1275;142805;-64
2022/09/20 08:11:55;;;;;;;7.30;5.70;;;;;;;12.38;84.50;99357.85;445865;1275;142505;-64
2022/09/20 08:22:00;;;;;;;6.70;6.10;;;;;;;12.60;82.09;99362.35;446465;1276;143614;-64
2022/09/20 08:32:06;;;;;;;8.20;6.00;;;;;;;12.22;81.46;99374.86;445678;1275;142157;-64
2022/09/20 08:42:22;;;;;;;9.10;5.70;;;;;;;12.59;80.66;99371.41;439896;1275;142379;-64
2022/09/20 08:52:31;;;;;;;6.90;5.10;;;;;;;13.45;79.64;99367.89;443915;1275;145841;-64
2022/09/20 09:02:43;;;;;;;4.60;4.20;;;;;;;14.82;77.03;99379.36;445753;1276;144015;-63
2022/09/20 09:12:49;;;;;;;4.60;4.10;;;;;;;14.69;75.41;99381.88;446564;1274;143171;-65
2022/09/20 09:23:03;;;;;;;6.60;3.50;;;;;;;14.02;74.75;99384.38;446528;1275;142076;-64
2022/09/20 09:33:33;;;;;;;5.30;3.90;;;;;;;13.83;75.12;99383.63;446614;1275;142784;-64
2022/09/20 09:43:39;;;;;;;4.20;3.80;;;;;;;13.84;74.56;99387.20;446559;1275;143004;-64
2022/09/20 09:53:47;;;;;;;3.80;3.50;;;;;;;13.89;74.32;99390.30;445918;1275;145244;-64
2022/09/20 10:04:02;;;;;;;5.80;5.30;;;;;;;13.68;73.64;99401.30;446654;1275;142942;-64
2022/09/20 10:14:22;;;;;;;4.30;3.70;;;;;;;12.81;74.48;99417.65;445883;1275;142809;-64
2022/09/20 10:24:42;;;;;;;5.10;4.60;;;;;;;13.25;74.45;99415.06;446637;1275;142793;-63
2022/09/20 10:35:09;;;;;;;8.90;4.60;;;;;;;13.27;73.93;99426.67;446687;1275;144304;-64
2022/09/20 10:45:19;;;;;;;4.70;4.20;;;;;;;13.75;73.69;99432.58;447072;1273;142727;-64
2022/09/20 10:55:52;;;;;;;4.30;3.80;;;;;;;14.13;72.91;99431.71;447069;1273;143224;-63
2022/09/20 11:06:12;;;;;;;5.00;4.20;;;;;;;14.50;72.01;99440.12;437485;1273;142666;-65
2022/09/20 11:16:22;;;;;;;4.90;4.50;;;;;;;13.91;71.75;99443.00;447062;1273;143834;-64
2022/09/20 11:26:32;;;;;;;4.70;4.20;;;;;;;13.58;72.27;99455.80;446308;1273;143239;-63
2022/09/20 11:36:47;;;;;;;10.30;5.70;;;;;;;13.68;72.12;99457.30;447040;1272;142580;-64
2022/09/20 11:47:01;;;;;;;4.90;4.50;;;;;;;13.67;72.44;99469.65;447030;1273;144757;-64
2022/09/20 11:57:12;;;;;;;6.90;5.00;;;;;;;14.36;71.96;99462.95;447024;1270;141647;-64
2022/09/20 12:07:23;;;;;;;5.80;3.30;;;;;;;14.07;71.11;99465.91;446537;1275;142768;-64
2022/09/20 12:18:27;;;;;;;3.80;3.10;;;;;;;13.65;71.29;99466.80;437959;1273;142912;-64
2022/09/20 12:28:38;;;;;;;3.50;3.10;;;;;;;13.41;71.31;99461.62;447060;1273;142734;-64
2022/09/20 12:39:02;;;;;;;2.20;1.90;;;;;;;13.68;70.40;99452.55;446267;1272;143268;-64
2022/09/20 13:00:04;;;;;;;4.00;3.20;;;;;;;14.13;68.95;99440.14;447047;1272;145478;-63
2022/09/20 13:10:23;;;;;;;2.70;2.50;;;;;;;14.33;68.37;99442.40;447047;1272;143499;-63
2022/09/20 13:20:33;;;;;;;9.50;3.00;;;;;;;14.18;67.91;99439.41;446274;1272;144146;-63
2022/09/20 13:30:40;;;;;;;3.10;2.30;;;;;;;13.90;67.34;99436.91;447047;1271;141933;-64
2022/09/20 13:40:47;;;;;;;2.40;2.20;;;;;;;13.29;67.51;99441.94;447066;1270;146763;-63
2022/09/20 13:50:53;;;;;;;6.80;2.00;;;;;;;13.24;66.98;99450.10;446294;1273;144623;-64
2022/09/20 14:01:01;;;;;;;2.50;1.60;;;;;;;13.02;67.09;99451.21;446608;1275;142353;-64
2022/09/20 14:11:13;;;;;;;6.40;2.40;;;;;;;13.17;67.31;99440.11;446255;1273;142789;-65
2022/09/20 14:21:24;;;;;;;3.40;2.00;;;;;;;13.15;66.30;99432.47;447074;1273;145787;-65
2022/09/20 14:31:34;;;;;;;2.60;2.30;;;;;;;12.88;66.40;99426.42;446561;1275;143912;-65
2022/09/20 14:41:41;;;;;;;4.20;2.30;;;;;;;12.90;67.01;99431.19;446218;1273;201349;-64
2022/09/20 14:51:47;;;;;;;2.70;2.00;;;;;;;13.11;67.42;99427.67;438940;1272;142871;-63
2022/09/20 15:02:12;;;;;;;5.40;2.30;;;;;;;13.19;66.68;99445.17;442295;1272;143585;-64
2022/09/20 15:12:20;;;;;;;2.60;1.60;;;;;;;13.16;66.66;99454.92;433052;1275;142842;-65
2022/09/20 15:22:26;;;;;;;3.60;2.70;;;;;;;13.38;66.97;99459.90;444524;1271;199592;-64
2022/09/20 15:32:31;;;;;;;3.20;2.90;;;;;;;13.59;66.71;99462.54;446290;1273;146374;-64
2022/09/20 15:42:40;;;;;;;4.30;2.30;;;;;;;13.56;67.09;99475.21;446634;1275;142234;-63
2022/09/20 15:52:46;;;;;;;2.90;2.60;;;;;;;13.26;68.35;99487.73;446311;1275;143414;-64
2022/09/20 16:02:51;;;;;;;3.60;3.30;;;;;;;13.01;69.71;99494.67;445888;1275;142917;-64
2022/09/20 16:12:57;;;;;;;3.60;2.90;;;;;;;12.84;70.64;99503.52;446580;1275;144338;-64
2022/09/20 16:23:03;;;;;;;2.40;1.90;;;;;;;12.55;71.54;99504.97;445801;1275;142201;-63
2022/09/20 16:33:10;;;;;;;4.90;2.50;;;;;;;12.13;71.85;99519.39;446539;1274;142862;-64
2022/09/20 16:43:23;;;;;;;2.80;1.90;;;;;;;11.70;72.05;99520.27;446934;1273;142928;-63
2022/09/20 16:53:29;;;;;;;3.20;2.70;;;;;;;11.28;72.50;99527.16;446252;1273;186013;-64
2022/09/20 17:03:36;;;;;;;5.50;4.60;;;;;;;10.87;73.25;99540.33;447067;1272;142870;-64
2022/09/20 17:13:43;;;;;;;5.60;3.60;;;;;;;10.42;74.14;99553.77;447067;1273;143632;-64
2022/09/20 17:23:53;;;;;;;8.20;6.60;;;;;;;9.98;75.04;99557.38;446260;1273;143410;-64
2022/09/20 17:34:00;;;;;;;12.00;8.70;;;;;;;9.71;76.13;99574.19;445161;1274;143647;-63
2022/09/20 17:44:07;;;;;;;10.20;7.00;;;;;;;9.68;76.45;99590.27;446302;1271;142796;-64
2022/09/20 17:54:14;;;;;;;13.20;6.90;;;;;;;9.64;77.20;99603.28;447065;1273;143082;-64
2022/09/20 18:04:23;;;;;;;13.10;9.10;;;;;;;9.34;77.43;99620.90;447010;1273;142483;-64
2022/09/20 18:14:30;;;;;;;9.90;7.30;;;;;;;8.94;77.97;99628.61;443452;1273;143913;-64
2022/09/20 18:24:36;;;;;;;8.70;7.20;;;;;;;8.69;78.84;99634.34;441689;1271;141380;-64
2022/09/20 18:34:41;;;;;;;7.40;6.30;;;;;;;8.55;79.16;99645.41;429966;1276;147020;-64
2022/09/20 18:44:48;;;;;;;9.90;6.90;;;;;;;8.34;79.46;99662.03;429601;1273;146956;-63
2022/09/20 18:54:55;;;;;;;9.60;7.30;;;;;;;8.03;79.95;99666.42;429670;1274;142455;-62
2022/09/20 19:05:27;;;;;;;9.50;7.60;;;;;;;7.71;80.53;99668.96;432215;1273;161459;-65
2022/09/20 19:15:45;;;;;;;12.10;8.90;;;;;;;7.46;81.20;99678.73;431964;1273;143627;-64
2022/09/20 19:26:05;;;;;;;10.30;7.20;;;;;;;7.53;82.25;99685.33;430039;1273;143474;-64
2022/09/20 19:36:13;;;;;;;10.00;7.30;;;;;;;7.71;82.52;99686.05;438716;1273;143667;-64
2022/09/20 19:46:36;;;;;;;6.30;5.70;;;;;;;7.87;82.57;99690.23;437132;1273;147606;-64
2022/09/20 19:56:52;;;;;;;8.60;6.20;;;;;;;8.06;83.09;99695.55;433187;1273;147939;-64
2022/09/20 20:07:07;;;;;;;6.70;4.80;;;;;;;8.20;83.29;99700.61;435160;1273;141708;-63
2022/09/20 20:17:24;;;;;;;7.10;5.90;;;;;;;8.24;83.24;99706.48;429812;1273;142925;-63
2022/09/20 20:27:31;;;;;;;8.00;5.50;;;;;;;8.07;83.14;99711.90;442866;1273;142328;-64
2022/09/20 20:37:38;;;;;;;6.00;5.00;;;;;;;7.84;83.45;99717.95;433257;1273;145739;-64
2022/09/20 20:47:45;;;;;;;6.50;5.10;;;;;;;7.57;83.68;99720.52;430923;1273;179785;-66
2022/09/20 20:57:56;;;;;;;7.20;5.00;;;;;;;7.33;84.22;99723.21;432800;1273;143198;-64
2022/09/20 21:08:03;;;;;;;8.20;5.50;;;;;;;7.18;84.71;99730.23;432715;1274;200348;-63
2022/09/20 21:18:09;;;;;;;9.60;6.10;;;;;;;7.04;84.92;99732.43;430908;1273;141677;-63
2022/09/20 21:28:14;;;;;;;8.90;6.80;;;;;;;6.87;85.59;99738.27;438877;1273;143348;-64
2022/09/20 21:38:20;;;;;;;7.90;6.50;;;;;;;6.97;86.51;99745.14;445422;1273;160335;-64
2022/09/20 21:48:27;;;;;;;8.30;6.50;;;;;;;7.06;86.75;99744.55;442444;1273;142049;-64
2022/09/20 21:58:34;;;;;;;8.70;7.20;;;;;;;7.05;86.82;99742.69;439319;1274;145099;-64
2022/09/20 22:08:41;;;;;;;9.10;7.10;;;;;;;6.88;86.78;99749.38;438008;1274;142658;-63
2022/09/20 22:18:48;;;;;;;8.30;6.70;;;;;;;6.63;86.99;99759.88;446905;1273;143498;-65
2022/09/20 22:28:54;;;;;;;8.20;6.70;;;;;;;6.43;87.23;99764.23;432869;1273;142720;-65
2022/09/20 22:39:00;;;;;;;8.90;6.50;;;;;;;6.29;87.49;99764.30;435501;1273;142243;-62
2022/09/20 22:49:07;;;;;;;7.80;7.10;;;;;;;6.21;87.54;99762.25;440098;1273;154054;-63
2022/09/20 22:59:14;;;;;;;7.30;6.40;;;;;;;6.05;87.53;99769.69;436127;1273;144035;-63
2022/09/20 23:09:21;;;;;;;14.00;8.10;;;;;;;5.94;88.06;99771.00;434084;1273;143125;-63
2022/09/20 23:19:26;;;;;;;9.90;7.30;;;;;;;5.81;88.42;99767.36;432129;1273;144357;-62
2022/09/20 23:29:33;;;;;;;8.70;6.40;;;;;;;5.62;88.74;99775.56;430209;1274;142132;-63
2022/09/20 23:39:40;;;;;;;7.50;6.00;;;;;;;5.45;88.70;99779.22;446918;1273;142471;-63
2022/09/20 23:49:45;;;;;;;9.60;7.10;;;;;;;5.32;89.10;99779.20;446372;1275;142909;-63
2022/09/20 23:59:51;;;;;;;7.00;5.80;;;;;;;5.17;89.14;99785.16;446127;1273;145516;-64
